Time;durP1;ratioP1;P1;durP2;ratioP2;P2;SDS_P1;SDS_P2;PMS_P1;PMS_P2;Temp;Humidity;BMP_temperature;BMP_pressure;BME280_temperature;BME280_humidity;BME280_pressure;Samples;Min_cycle;Max_cycle;Signal;HPM_P1;HPM_P2
2021/12/19 00:09:34;;;;;;;22.10;9.02;;;7.40;99.90;;;;;;4900878;29;20516;-65
2021/12/19 00:12:00;;;;;;;20.63;8.68;;;7.50;99.90;;;;;;4906545;29;20040;-65
2021/12/19 00:14:26;;;;;;;15.32;7.97;;;7.50;99.90;;;;;;4907671;29;20052;-65
2021/12/19 00:16:54;;;;;;;16.75;8.18;;;7.50;99.90;;;;;;4924072;29;20517;-65
2021/12/19 00:19:20;;;;;;;18.17;7.70;;;7.50;99.90;;;;;;4888928;29;20087;-65
2021/12/19 00:21:46;;;;;;;16.08;7.80;;;7.50;99.90;;;;;;4924707;29;20055;-65
2021/12/19 00:24:12;;;;;;;18.20;7.63;;;7.50;99.90;;;;;;4925685;29;20059;-65
2021/12/19 00:26:38;;;;;;;14.20;6.72;;;7.50;99.90;;;;;;4911691;29;20402;-65
2021/12/19 00:29:04;;;;;;;13.27;5.70;;;7.50;99.90;;;;;;4895316;29;20040;-65
2021/12/19 00:31:31;;;;;;;13.15;4.80;;;7.50;99.90;;;;;;4903953;29;20856;-65
2021/12/19 00:33:58;;;;;;;14.88;4.40;;;7.50;99.90;;;;;;4914449;29;20082;-65
2021/12/19 00:36:24;;;;;;;11.10;3.65;;;7.50;99.90;;;;;;4910108;29;20058;-65
2021/12/19 00:38:49;;;;;;;8.35;2.63;;;7.50;99.90;;;;;;4903347;29;20174;-65
2021/12/19 00:41:16;;;;;;;9.63;2.40;;;7.50;99.90;;;;;;4907679;29;20043;-65
2021/12/19 00:43:53;;;;;;;5.93;2.15;;;7.50;99.90;;;;;;4909461;29;20052;-65
2021/12/19 00:46:19;;;;;;;6.55;1.70;;;7.50;99.90;;;;;;4910764;29;20059;-65
2021/12/19 00:48:54;;;;;;;3.33;1.48;;;7.50;99.90;;;;;;4913468;29;20055;-65
2021/12/19 00:51:23;;;;;;;3.80;1.55;;;7.40;99.90;;;;;;4912937;29;20118;-66
2021/12/19 00:53:50;;;;;;;7.07;1.50;;;7.40;99.90;;;;;;4907980;29;20119;-65
2021/12/19 00:56:16;;;;;;;4.80;1.30;;;7.40;99.90;;;;;;4881265;29;20507;-65
2021/12/19 00:58:43;;;;;;;3.20;1.33;;;7.40;99.90;;;;;;4927664;29;20043;-65
2021/12/19 01:01:11;;;;;;;3.78;1.10;;;7.40;99.90;;;;;;4912319;29;20124;-65
2021/12/19 01:03:38;;;;;;;5.90;1.60;;;7.40;99.90;;;;;;4892715;29;20047;-65
2021/12/19 01:06:04;;;;;;;5.00;1.23;;;7.30;99.90;;;;;;4925659;29;20044;-65
2021/12/19 01:08:31;;;;;;;3.45;1.00;;;7.30;99.90;;;;;;4888811;29;20079;-65
2021/12/19 01:10:57;;;;;;;2.10;1.13;;;7.30;99.90;;;;;;4907446;29;20055;-65
2021/12/19 01:13:23;;;;;;;5.53;1.10;;;7.30;99.90;;;;;;4901031;29;20047;-65
2021/12/19 01:15:50;;;;;;;7.18;1.30;;;7.30;99.90;;;;;;4912401;29;20071;-65
2021/12/19 01:18:16;;;;;;;1.88;0.70;;;7.30;99.90;;;;;;4908469;29;20052;-65
2021/12/19 01:20:42;;;;;;;2.75;0.90;;;7.30;99.90;;;;;;4908552;29;20390;-65
2021/12/19 01:23:10;;;;;;;2.03;0.88;;;7.20;99.90;;;;;;4907360;29;20060;-65
2021/12/19 01:25:37;;;;;;;3.83;0.90;;;7.20;99.90;;;;;;4911029;29;20399;-65
2021/12/19 01:28:03;;;;;;;4.88;1.30;;;7.20;99.90;;;;;;4908654;29;20107;-65
2021/12/19 01:30:30;;;;;;;5.40;1.10;;;7.20;99.90;;;;;;4891982;29;20594;-65
2021/12/19 01:32:55;;;;;;;1.95;1.13;;;7.20;99.90;;;;;;4906859;29;20098;-65
2021/12/19 01:35:24;;;;;;;3.90;1.08;;;7.20;99.90;;;;;;4885870;29;20048;-65
2021/12/19 01:37:50;;;;;;;2.65;1.27;;;7.20;99.90;;;;;;4926175;29;20102;-65
2021/12/19 01:40:18;;;;;;;6.80;1.65;;;7.20;99.90;;;;;;4892861;29;20138;-65
2021/12/19 01:42:46;;;;;;;5.70;1.30;;;7.20;99.90;;;;;;4891263;29;20055;-65
2021/12/19 01:45:20;;;;;;;5.25;1.60;;;7.20;99.90;;;;;;4895333;29;20099;-65
2021/12/19 01:47:47;;;;;;;4.75;1.98;;;7.20;99.90;;;;;;4911837;29;20162;-65
2021/12/19 01:50:13;;;;;;;12.60;2.38;;;7.30;99.90;;;;;;4926211;29;20044;-65
2021/12/19 01:52:39;;;;;;;6.93;2.00;;;7.20;99.90;;;;;;4896590;29;20047;-65
2021/12/19 01:55:06;;;;;;;4.65;2.08;;;7.20;99.90;;;;;;4920765;28;20937;-65
2021/12/19 01:57:34;;;;;;;6.80;1.80;;;7.20;99.90;;;;;;4929211;28;20118;-65
2021/12/19 02:00:01;;;;;;;2.85;1.30;;;7.20;99.90;;;;;;4898995;28;20130;-65
2021/12/19 02:02:26;;;;;;;5.28;1.25;;;7.20;99.90;;;;;;4928955;29;20050;-65
2021/12/19 02:04:52;;;;;;;3.40;1.10;;;7.20;99.90;;;;;;4930281;29;20052;-65
2021/12/19 02:07:18;;;;;;;2.97;0.90;;;7.20;99.90;;;;;;4926384;29;20039;-65
2021/12/19 02:09:45;;;;;;;5.10;0.90;;;7.20;99.90;;;;;;4931318;29;20508;-65
2021/12/19 02:12:12;;;;;;;3.22;0.77;;;7.10;99.90;;;;;;4910343;28;20143;-65
2021/12/19 02:14:38;;;;;;;4.32;1.05;;;7.10;99.90;;;;;;4927648;29;20106;-65
2021/12/19 02:17:05;;;;;;;6.43;0.90;;;7.10;99.90;;;;;;4926597;29;20047;-65
2021/12/19 02:19:32;;;;;;;2.58;1.05;;;7.00;99.90;;;;;;4925313;29;20060;-65
2021/12/19 02:21:59;;;;;;;4.18;1.30;;;7.00;99.90;;;;;;4891202;29;20059;-65
2021/12/19 02:24:25;;;;;;;1.25;0.80;;;7.00;99.90;;;;;;4928270;29;20126;-65
2021/12/19 02:26:51;;;;;;;5.70;1.40;;;7.00;99.90;;;;;;4945588;28;20182;-65
2021/12/19 02:29:17;;;;;;;3.92;1.10;;;6.90;99.90;;;;;;4896359;29;20070;-65
2021/12/19 02:31:44;;;;;;;4.70;0.90;;;6.90;99.90;;;;;;4929493;29;20472;-65
2021/12/19 02:34:17;;;;;;;3.60;0.95;;;6.90;99.90;;;;;;4914915;29;20060;-65
2021/12/19 02:39:45;;;;;;;1.95;0.73;;;6.90;99.90;;;;;;4931225;29;20380;-65
2021/12/19 02:50:09;;;;;;;4.13;1.20;;;6.90;99.90;;;;;;4925897;29;20054;-65
2021/12/19 02:52:35;;;;;;;6.95;1.33;;;6.90;99.90;;;;;;4928986;29;20058;-65
2021/12/19 02:55:04;;;;;;;6.18;1.40;;;6.90;99.90;;;;;;4924783;29;20067;-65
2021/12/19 02:57:30;;;;;;;2.90;1.33;;;6.90;99.90;;;;;;4910340;29;20043;-65
2021/12/19 02:59:56;;;;;;;6.90;1.30;;;6.90;99.90;;;;;;4931247;29;20047;-65
2021/12/19 03:02:22;;;;;;;4.95;1.50;;;6.90;99.90;;;;;;4898685;29;20058;-65
2021/12/19 03:04:59;;;;;;;5.40;1.67;;;6.90;99.90;;;;;;4923856;29;20051;-65
2021/12/19 03:07:27;;;;;;;5.93;1.90;;;6.90;99.90;;;;;;4915679;29;20058;-65
2021/12/19 03:12:49;;;;;;;5.28;1.90;;;6.90;99.90;;;;;;4928070;28;20043;-65
2021/12/19 03:18:09;;;;;;;3.17;1.40;;;6.80;99.90;;;;;;4930341;29;20051;-65
2021/12/19 03:20:37;;;;;;;6.72;1.65;;;6.80;99.90;;;;;;4923026;29;20077;-65
2021/12/19 03:23:06;;;;;;;8.15;1.70;;;6.80;99.90;;;;;;4914061;29;20139;-65
2021/12/19 03:25:33;;;;;;;6.25;1.45;;;6.80;99.90;;;;;;4927130;29;20050;-65
2021/12/19 03:28:02;;;;;;;8.48;1.95;;;6.80;99.90;;;;;;4928765;29;20055;-65
2021/12/19 03:30:29;;;;;;;10.50;1.80;;;6.80;99.90;;;;;;4929342;29;20051;-65
2021/12/19 03:32:55;;;;;;;6.10;1.75;;;6.80;99.90;;;;;;4929600;29;20047;-65
2021/12/19 03:35:23;;;;;;;3.45;1.77;;;6.80;99.90;;;;;;4911204;29;20525;-65
2021/12/19 03:37:51;;;;;;;5.95;1.85;;;6.80;99.90;;;;;;4929878;29;20047;-65
2021/12/19 03:40:23;;;;;;;6.78;1.85;;;6.80;99.90;;;;;;4906855;29;20430;-65
2021/12/19 03:42:52;;;;;;;7.47;1.77;;;6.80;99.90;;;;;;4915230;29;20058;-64
2021/12/19 03:45:20;;;;;;;2.53;1.20;;;6.80;99.90;;;;;;4928349;29;20051;-62
2021/12/19 03:47:47;;;;;;;6.93;1.15;;;6.80;99.90;;;;;;4929596;29;20051;-62
2021/12/19 03:50:17;;;;;;;2.50;0.90;;;6.80;99.90;;;;;;4930524;29;20422;-63
2021/12/19 03:52:43;;;;;;;4.18;1.30;;;6.80;99.90;;;;;;4925470;29;20133;-62
2021/12/19 03:55:09;;;;;;;8.45;1.75;;;6.80;99.90;;;;;;4907908;29;20063;-61
2021/12/19 03:57:35;;;;;;;6.40;1.70;;;6.80;99.90;;;;;;4924256;29;20047;-62
2021/12/19 04:00:01;;;;;;;5.70;2.00;;;6.90;99.90;;;;;;4914702;29;20058;-62
2021/12/19 04:02:28;;;;;;;9.70;2.63;;;6.80;99.90;;;;;;4915517;29;20051;-61
2021/12/19 04:04:57;;;;;;;9.75;2.90;;;6.80;99.90;;;;;;4929786;29;20055;-62
2021/12/19 04:07:24;;;;;;;8.70;2.63;;;6.90;99.90;;;;;;4927837;29;20043;-62
2021/12/19 04:09:50;;;;;;;15.13;3.15;;;6.90;99.90;;;;;;4913443;29;20130;-62
2021/12/19 04:12:17;;;;;;;9.00;2.65;;;6.90;99.90;;;;;;4945884;28;20087;-62
2021/12/19 04:14:43;;;;;;;7.72;3.38;;;6.80;99.90;;;;;;4928445;29;20051;-63
2021/12/19 04:17:09;;;;;;;13.57;3.80;;;6.90;99.90;;;;;;4908174;29;20047;-62
2021/12/19 04:19:35;;;;;;;18.23;3.83;;;6.90;99.90;;;;;;4913616;29;20055;-62
2021/12/19 04:22:01;;;;;;;14.90;4.55;;;6.90;99.90;;;;;;4926334;29;20048;-62
2021/12/19 04:24:28;;;;;;;15.32;5.75;;;6.90;99.90;;;;;;4884459;29;20058;-63
2021/12/19 04:26:54;;;;;;;15.88;5.00;;;6.90;99.90;;;;;;4948500;28;20040;-63
2021/12/19 04:29:21;;;;;;;19.20;4.63;;;6.90;99.90;;;;;;4928208;28;20043;-62
2021/12/19 04:31:46;;;;;;;20.95;5.20;;;6.90;99.90;;;;;;4926592;28;20073;-61
2021/12/19 04:34:13;;;;;;;28.00;5.90;;;7.00;99.90;;;;;;4915728;28;20486;-61
2021/12/19 04:36:42;;;;;;;23.92;6.68;;;7.00;99.90;;;;;;4927836;28;20069;-62
2021/12/19 04:57:59;;;;;;;18.17;5.80;;;7.00;99.90;;;;;;4948492;28;20513;-62
2021/12/19 05:00:42;;;;;;;24.75;7.38;;;7.00;99.90;;;;;;4918304;28;20102;-63
2021/12/19 05:03:26;;;;;;;29.83;7.20;;;7.00;99.90;;;;;;4931435;29;20054;-61
2021/12/19 05:06:19;;;;;;;27.58;7.45;;;7.00;99.90;;;;;;4930547;29;20047;-61
2021/12/19 05:16:39;;;;;;;25.70;8.60;;;7.00;99.90;;;;;;4932037;29;20051;-64
2021/12/19 05:19:18;;;;;;;23.63;9.23;;;7.00;99.90;;;;;;4930553;29;20083;-62
2021/12/19 05:21:44;;;;;;;29.60;11.25;;;7.00;99.90;;;;;;4925764;28;20062;-63
2021/12/19 05:24:21;;;;;;;25.27;9.65;;;7.00;99.90;;;;;;4929566;28;20059;-62
2021/12/19 05:26:48;;;;;;;24.65;9.90;;;7.10;99.90;;;;;;4931307;28;20473;-63
2021/12/19 05:29:17;;;;;;;26.33;8.05;;;7.00;99.90;;;;;;4909798;28;20162;-61
2021/12/19 05:31:43;;;;;;;20.35;6.68;;;7.00;99.90;;;;;;4916144;28;20134;-63
2021/12/19 05:34:10;;;;;;;22.77;7.43;;;7.00;99.90;;;;;;4930191;28;20398;-62
2021/12/19 05:47:21;;;;;;;28.45;8.40;;;7.10;99.90;;;;;;4931459;28;20147;-63
2021/12/19 05:49:48;;;;;;;24.75;8.43;;;7.10;99.90;;;;;;4925793;28;20049;-62
2021/12/19 05:52:13;;;;;;;23.88;6.18;;;7.10;99.90;;;;;;4930784;28;20483;-62
2021/12/19 05:54:39;;;;;;;23.00;6.78;;;7.10;99.90;;;;;;4887218;28;1124428;-62
2021/12/19 05:57:05;;;;;;;22.10;6.85;;;7.00;99.90;;;;;;4932010;28;20059;-62
2021/12/19 05:59:31;;;;;;;16.60;6.90;;;7.10;99.90;;;;;;4926267;28;20153;-62
2021/12/19 06:01:57;;;;;;;20.83;6.80;;;7.10;99.90;;;;;;4918651;28;20039;-62
2021/12/19 06:04:22;;;;;;;24.02;6.95;;;7.10;99.90;;;;;;4895755;29;20138;-64
2021/12/19 06:06:49;;;;;;;21.58;6.93;;;7.10;99.90;;;;;;4911334;29;20058;-63
2021/12/19 06:09:15;;;;;;;25.20;7.70;;;7.00;99.90;;;;;;4915125;29;20471;-62
2021/12/19 06:11:41;;;;;;;18.67;7.40;;;7.00;99.90;;;;;;4914854;29;20047;-61
2021/12/19 06:14:06;;;;;;;15.30;7.07;;;7.00;99.90;;;;;;4928767;29;20106;-62
2021/12/19 06:16:32;;;;;;;25.10;7.35;;;7.10;99.90;;;;;;4915857;29;20085;-62
2021/12/19 06:18:58;;;;;;;22.63;7.00;;;7.00;99.90;;;;;;4930312;29;20058;-62
2021/12/19 06:21:24;;;;;;;23.92;7.05;;;7.10;99.90;;;;;;4924165;29;20066;-62
2021/12/19 06:23:50;;;;;;;18.90;6.38;;;7.10;99.90;;;;;;4918701;29;20098;-62
2021/12/19 06:26:16;;;;;;;25.65;6.40;;;7.10;99.90;;;;;;4929304;29;20054;-63
2021/12/19 06:28:42;;;;;;;23.67;6.03;;;7.10;99.90;;;;;;4914205;29;20047;-62
2021/12/19 06:31:08;;;;;;;24.60;5.70;;;7.10;99.90;;;;;;4932329;28;20447;-63
2021/12/19 06:33:34;;;;;;;27.38;6.22;;;7.10;99.90;;;;;;4926769;28;20035;-64
2021/12/19 06:36:00;;;;;;;18.15;4.80;;;7.10;99.90;;;;;;4925927;28;20169;-62
2021/12/19 06:38:26;;;;;;;15.50;4.28;;;7.00;99.90;;;;;;4931535;28;20074;-62
2021/12/19 06:40:52;;;;;;;17.08;4.88;;;7.10;99.90;;;;;;4931056;28;20161;-63
2021/12/19 06:43:17;;;;;;;16.90;4.43;;;7.00;99.90;;;;;;4892473;28;20054;-63
2021/12/19 06:45:43;;;;;;;16.65;4.90;;;7.10;99.90;;;;;;4930128;28;20043;-62
2021/12/19 06:48:09;;;;;;;21.50;4.55;;;7.00;99.90;;;;;;4910806;28;20103;-63
2021/12/19 06:50:35;;;;;;;18.33;4.93;;;7.00;99.90;;;;;;4929207;28;20035;-63
2021/12/19 06:53:01;;;;;;;13.05;4.35;;;7.00;99.90;;;;;;4930238;28;20039;-64
2021/12/19 06:55:27;;;;;;;13.18;4.25;;;7.00;99.90;;;;;;4904527;29;20060;-64
2021/12/19 06:57:52;;;;;;;17.98;4.72;;;7.00;99.90;;;;;;4906203;29;20063;-63
2021/12/19 07:00:23;;;;;;;16.35;4.80;;;7.00;99.90;;;;;;4892245;29;20066;-62
2021/12/19 07:02:49;;;;;;;10.63;4.20;;;7.00;99.90;;;;;;4914445;29;20522;-63
2021/12/19 07:05:15;;;;;;;16.60;4.57;;;7.00;99.90;;;;;;4908456;29;20047;-63
2021/12/19 07:07:41;;;;;;;18.05;4.35;;;7.00;99.90;;;;;;4891370;29;20091;-63
2021/12/19 07:10:08;;;;;;;18.25;4.15;;;7.00;99.90;;;;;;4889091;29;20147;-62
2021/12/19 07:12:34;;;;;;;16.63;4.20;;;7.00;99.90;;;;;;4912918;29;20487;-62
2021/12/19 07:15:00;;;;;;;20.23;4.40;;;7.00;99.90;;;;;;4910453;29;20047;-63
2021/12/19 07:17:26;;;;;;;22.20;4.55;;;7.00;99.90;;;;;;4905717;29;20059;-63
2021/12/19 07:19:52;;;;;;;19.98;4.25;;;7.00;99.90;;;;;;4918170;29;20047;-62
2021/12/19 07:22:19;;;;;;;17.02;4.22;;;7.00;99.90;;;;;;4905384;29;20106;-64
2021/12/19 07:24:45;;;;;;;17.02;4.70;;;7.00;99.90;;;;;;4890778;29;20052;-63
2021/12/19 07:27:13;;;;;;;25.33;4.53;;;7.00;99.90;;;;;;4911345;29;20048;-63
2021/12/19 07:29:39;;;;;;;17.65;4.00;;;7.00;99.90;;;;;;4910616;29;20070;-62
2021/12/19 07:32:05;;;;;;;16.05;4.43;;;7.00;99.90;;;;;;4906470;29;20051;-62
2021/12/19 07:34:32;;;;;;;14.73;4.00;;;7.10;99.90;;;;;;4906722;29;20047;-64
2021/12/19 07:36:58;;;;;;;16.00;4.07;;;7.10;99.90;;;;;;4874900;29;20376;-63
2021/12/19 07:41:54;;;;;;;18.77;3.45;;;7.10;99.90;;;;;;4907540;29;20043;-64
2021/12/19 07:44:19;;;;;;;13.32;3.75;;;7.10;99.90;;;;;;4896245;29;20075;-62
2021/12/19 07:46:45;;;;;;;12.98;3.65;;;7.10;99.90;;;;;;4889010;29;20087;-62
2021/12/19 07:49:12;;;;;;;13.65;3.97;;;7.10;99.90;;;;;;4910469;29;20115;-61
2021/12/19 07:51:38;;;;;;;16.17;3.88;;;7.20;99.90;;;;;;4895182;29;20401;-63
2021/12/19 07:54:04;;;;;;;21.33;4.20;;;7.20;99.90;;;;;;4927734;29;20055;-62
2021/12/19 07:56:31;;;;;;;19.10;3.85;;;7.20;99.90;;;;;;4910879;29;20040;-62
2021/12/19 07:58:57;;;;;;;12.15;3.83;;;7.20;99.90;;;;;;4906415;29;20043;-64
2021/12/19 08:01:23;;;;;;;15.57;4.43;;;7.20;99.90;;;;;;4903198;29;20444;-63
2021/12/19 08:03:49;;;;;;;23.42;4.55;;;7.20;99.90;;;;;;4903885;29;20048;-63
2021/12/19 08:06:14;;;;;;;31.10;5.15;;;7.20;99.90;;;;;;4906037;29;20503;-62
2021/12/19 08:08:46;;;;;;;19.25;4.15;;;7.10;99.90;;;;;;4906408;29;20118;-64
2021/12/19 08:13:56;;;;;;;22.67;4.63;;;7.20;99.90;;;;;;4904569;29;20111;-62
2021/12/19 08:16:22;;;;;;;28.33;5.25;;;7.20;99.90;;;;;;4905191;29;20138;-63
2021/12/19 08:18:49;;;;;;;20.60;4.18;;;7.20;99.90;;;;;;4926454;29;20048;-63
2021/12/19 08:21:15;;;;;;;19.13;4.38;;;7.20;99.90;;;;;;4896207;29;20111;-62
2021/12/19 08:23:40;;;;;;;19.90;4.75;;;7.20;99.90;;;;;;4895534;29;20052;-63
2021/12/19 08:26:06;;;;;;;26.20;4.60;;;7.20;99.90;;;;;;4904281;29;20089;-62
2021/12/19 08:28:32;;;;;;;19.58;4.15;;;7.20;99.90;;;;;;4895971;29;20574;-63
2021/12/19 08:30:58;;;;;;;30.13;4.68;;;7.20;99.90;;;;;;4905533;29;20161;-62
2021/12/19 08:33:24;;;;;;;18.50;3.95;;;7.20;99.90;;;;;;4910089;29;20480;-62
2021/12/19 08:35:49;;;;;;;17.45;4.07;;;7.20;99.90;;;;;;4894440;29;20490;-62
2021/12/19 08:38:15;;;;;;;23.52;4.90;;;7.20;99.90;;;;;;4894086;29;20083;-62
2021/12/19 08:40:43;;;;;;;21.48;4.75;;;7.20;99.90;;;;;;4909782;29;20055;-63
2021/12/19 08:43:12;;;;;;;20.85;3.95;;;7.20;99.90;;;;;;4907169;29;20141;-63
2021/12/19 08:45:39;;;;;;;19.55;3.58;;;7.20;99.90;;;;;;4924934;28;20118;-64
2021/12/19 08:48:05;;;;;;;22.50;4.32;;;7.20;99.90;;;;;;4909466;29;20170;-62
2021/12/19 08:50:31;;;;;;;21.75;4.60;;;7.30;99.90;;;;;;4902680;29;20522;-63
2021/12/19 08:52:58;;;;;;;20.70;4.00;;;7.20;99.90;;;;;;4888971;29;20043;-64
2021/12/19 08:55:24;;;;;;;21.80;3.95;;;7.30;99.90;;;;;;4909181;29;20061;-62
2021/12/19 08:57:50;;;;;;;25.40;4.53;;;7.30;99.90;;;;;;4929175;29;20043;-62
2021/12/19 09:00:18;;;;;;;16.98;3.70;;;7.20;99.90;;;;;;4924264;29;20051;-62
2021/12/19 09:02:47;;;;;;;29.13;4.20;;;7.30;99.90;;;;;;4929844;29;20047;-62
2021/12/19 09:05:14;;;;;;;27.50;3.83;;;7.30;99.90;;;;;;4928122;29;20055;-62
2021/12/19 09:07:39;;;;;;;21.45;3.97;;;7.30;99.90;;;;;;4906621;29;20558;-63
2021/12/19 09:10:07;;;;;;;21.65;3.50;;;7.30;99.90;;;;;;4925643;29;20047;-64
2021/12/19 09:12:33;;;;;;;18.02;3.40;;;7.30;99.90;;;;;;4920361;29;20082;-62
2021/12/19 09:14:59;;;;;;;18.63;3.65;;;7.30;99.90;;;;;;4907744;29;20126;-62
2021/12/19 09:17:24;;;;;;;17.95;4.15;;;7.30;99.90;;;;;;4929765;29;20048;-63
2021/12/19 09:19:51;;;;;;;20.13;4.10;;;7.30;99.90;;;;;;4891438;29;20759;-62
2021/12/19 09:22:17;;;;;;;18.60;3.63;;;7.30;99.90;;;;;;4913733;29;20529;-63
2021/12/19 09:24:43;;;;;;;24.55;3.92;;;7.30;99.90;;;;;;4914985;28;20125;-62
2021/12/19 09:27:09;;;;;;;16.95;3.95;;;7.30;99.90;;;;;;4933640;28;20043;-63
2021/12/19 09:29:35;;;;;;;17.27;3.67;;;7.40;99.90;;;;;;4916328;28;20040;-62
2021/12/19 09:32:02;;;;;;;21.33;4.00;;;7.40;99.90;;;;;;4917949;28;20566;-62
2021/12/19 09:34:28;;;;;;;19.23;3.88;;;7.40;99.90;;;;;;4930992;28;20039;-61
2021/12/19 09:36:56;;;;;;;20.30;3.88;;;7.40;99.90;;;;;;4918380;28;20078;-64
2021/12/19 09:39:23;;;;;;;24.05;3.88;;;7.40;99.90;;;;;;4932707;28;20943;-62
2021/12/19 09:41:54;;;;;;;28.05;4.63;;;7.40;99.90;;;;;;4918743;28;20055;-62
2021/12/19 09:44:20;;;;;;;23.50;4.30;;;7.40;99.90;;;;;;4928157;28;20146;-61
2021/12/19 09:46:46;;;;;;;22.63;4.57;;;7.40;99.90;;;;;;4917877;28;20786;-62
2021/12/19 09:49:15;;;;;;;20.33;4.72;;;7.40;99.90;;;;;;4925194;28;20487;-62
2021/12/19 09:51:42;;;;;;;23.05;4.70;;;7.40;99.90;;;;;;4927120;28;20061;-62
2021/12/19 09:54:09;;;;;;;24.95;4.28;;;7.40;99.90;;;;;;4924187;28;20091;-63
2021/12/19 09:56:36;;;;;;;18.45;3.70;;;7.50;99.90;;;;;;4926952;28;20047;-62
2021/12/19 09:59:11;;;;;;;22.40;3.83;;;7.50;99.90;;;;;;4925828;28;20055;-64
2021/12/19 10:01:37;;;;;;;20.25;3.78;;;7.50;99.90;;;;;;4931214;28;20426;-62
2021/12/19 10:04:04;;;;;;;27.40;3.63;;;7.50;99.90;;;;;;4923737;28;20121;-63
2021/12/19 10:06:31;;;;;;;16.05;2.75;;;7.50;99.90;;;;;;4929444;28;20079;-63
2021/12/19 10:09:18;;;;;;;21.30;3.10;;;7.50;99.90;;;;;;4913082;28;20051;-63
2021/12/19 10:14:24;;;;;;;16.20;3.50;;;7.50;99.90;;;;;;4925206;28;20042;-63
2021/12/19 10:16:50;;;;;;;20.35;3.20;;;7.50;99.90;;;;;;4926914;28;20054;-61
2021/12/19 10:19:16;;;;;;;23.25;3.72;;;7.50;99.90;;;;;;4913539;28;20047;-63
2021/12/19 10:21:42;;;;;;;18.45;3.55;;;7.50;99.90;;;;;;4924939;28;20254;-63
2021/12/19 10:24:10;;;;;;;15.48;3.35;;;7.50;99.90;;;;;;4927018;28;20050;-62
2021/12/19 10:26:43;;;;;;;12.93;2.95;;;7.50;99.90;;;;;;4914699;28;20078;-62
2021/12/19 10:29:10;;;;;;;15.52;3.47;;;7.50;99.90;;;;;;4927327;28;21022;-62
2021/12/19 10:31:37;;;;;;;20.90;3.53;;;7.50;99.90;;;;;;4930726;28;20553;-62
2021/12/19 10:34:19;;;;;;;23.25;3.35;;;7.50;99.90;;;;;;4913397;28;20035;-62
2021/12/19 10:36:45;;;;;;;19.53;3.67;;;7.60;99.90;;;;;;4928986;29;20130;-63
2021/12/19 10:39:17;;;;;;;28.50;3.33;;;7.60;99.90;;;;;;4913505;29;20127;-62
2021/12/19 10:41:43;;;;;;;14.55;2.92;;;7.60;99.90;;;;;;4925088;29;20054;-62
2021/12/19 10:45:29;;;;;;;17.30;2.95;;;7.50;99.90;;;;;;4926163;29;20044;-63
2021/12/19 10:47:19;;;;;;;16.25;2.92;;;7.60;99.90;;;;;;4917072;28;20575;-64
2021/12/19 10:49:46;;;;;;;19.38;3.10;;;7.60;99.90;;;;;;4930463;28;20049;-64
2021/12/19 10:52:12;;;;;;;20.13;3.05;;;7.60;99.90;;;;;;4912686;28;20050;-63
2021/12/19 10:54:56;;;;;;;14.27;3.05;;;7.60;99.90;;;;;;4927970;28;20047;-62
2021/12/19 10:57:31;;;;;;;19.02;3.40;;;7.70;99.90;;;;;;4931280;29;20133;-64
2021/12/19 10:59:57;;;;;;;15.50;3.15;;;7.70;99.90;;;;;;4935259;28;20109;-62
2021/12/19 11:02:55;;;;;;;16.38;3.33;;;7.70;99.90;;;;;;4929251;28;20043;-63
2021/12/19 11:05:41;;;;;;;18.75;3.38;;;7.70;99.90;;;;;;4901106;28;20398;-61
2021/12/19 11:08:09;;;;;;;18.42;3.78;;;7.70;99.90;;;;;;4915021;29;20055;-62
2021/12/19 11:10:37;;;;;;;20.77;3.80;;;7.70;99.90;;;;;;4928376;29;20406;-62
2021/12/19 11:13:09;;;;;;;19.70;3.22;;;7.70;99.90;;;;;;4931696;29;20070;-62
2021/12/19 11:15:35;;;;;;;18.30;3.70;;;7.70;99.90;;;;;;4910311;29;20236;-62
2021/12/19 11:18:02;;;;;;;15.60;3.15;;;7.70;99.90;;;;;;4929790;29;20126;-64
2021/12/19 11:20:28;;;;;;;19.75;3.15;;;7.70;99.90;;;;;;4923899;29;20047;-62
2021/12/19 11:22:54;;;;;;;23.30;3.72;;;7.80;99.90;;;;;;4925305;29;20055;-61
2021/12/19 11:25:20;;;;;;;22.13;3.83;;;7.80;99.90;;;;;;4923984;28;20046;-62
2021/12/19 11:27:47;;;;;;;24.25;3.78;;;7.70;99.90;;;;;;4925277;28;20513;-62
2021/12/19 11:30:14;;;;;;;20.65;4.53;;;7.80;99.90;;;;;;4942988;28;20035;-62
2021/12/19 11:33:23;;;;;;;20.38;3.55;;;7.80;99.90;;;;;;4913852;28;20105;-62
2021/12/19 11:35:54;;;;;;;22.73;3.58;;;7.80;99.90;;;;;;4922156;28;20182;-61
2021/12/19 11:38:22;;;;;;;23.88;4.22;;;7.80;99.90;;;;;;4927079;28;20555;-62
2021/12/19 11:40:50;;;;;;;18.70;3.35;;;7.80;99.90;;;;;;4928837;28;20058;-62
2021/12/19 11:43:16;;;;;;;22.00;3.40;;;7.80;99.90;;;;;;4921055;28;20058;-62
2021/12/19 11:45:52;;;;;;;27.05;4.00;;;7.90;99.90;;;;;;4921807;28;20047;-62
2021/12/19 11:50:49;;;;;;;25.75;5.10;;;7.90;99.90;;;;;;4926747;28;20090;-62
2021/12/19 11:53:14;;;;;;;25.08;4.30;;;7.90;99.90;;;;;;4929770;28;20549;-62
2021/12/19 11:55:46;;;;;;;22.83;3.90;;;7.90;99.90;;;;;;4927841;28;20099;-63
2021/12/19 11:58:12;;;;;;;33.85;4.50;;;7.90;99.90;;;;;;4914307;28;20919;-62
2021/12/19 12:01:03;;;;;;;23.85;4.43;;;8.00;99.90;;;;;;4921711;28;20050;-61
2021/12/19 12:03:34;;;;;;;22.17;4.10;;;8.00;99.90;;;;;;4925258;28;20043;-62
2021/12/19 12:06:09;;;;;;;26.13;4.63;;;8.00;99.90;;;;;;4897077;29;20039;-61
2021/12/19 12:08:35;;;;;;;27.90;5.22;;;8.00;99.90;;;;;;4921301;29;20051;-62
2021/12/19 12:11:04;;;;;;;19.83;4.00;;;8.00;99.90;;;;;;4923992;29;20043;-61
2021/12/19 12:13:35;;;;;;;25.95;4.45;;;8.00;99.90;;;;;;4941586;28;20086;-63
2021/12/19 12:16:26;;;;;;;27.40;4.85;;;8.00;99.90;;;;;;4927990;29;20465;-62
2021/12/19 12:19:00;;;;;;;31.13;4.22;;;8.10;99.90;;;;;;4924697;28;20091;-62
2021/12/19 12:21:32;;;;;;;27.95;3.90;;;8.10;99.90;;;;;;4908450;28;20055;-64
2021/12/19 12:24:04;;;;;;;22.65;3.60;;;8.00;99.90;;;;;;4908876;28;20496;-64
2021/12/19 12:26:44;;;;;;;;;;;8.10;99.90;;;;;;4925596;28;20509;-62
2021/12/19 12:29:11;;;;;;;24.52;3.15;;;8.10;99.90;;;;;;4907492;29;19918;-62
2021/12/19 12:31:38;;;;;;;24.83;4.20;;;8.00;99.90;;;;;;4929162;29;20051;-62
2021/12/19 12:34:09;;;;;;;20.38;3.10;;;8.00;99.90;;;;;;4905508;29;20046;-63
2021/12/19 12:36:35;;;;;;;19.33;3.70;;;8.10;99.90;;;;;;4942771;28;20047;-62
2021/12/19 12:39:06;;;;;;;20.00;3.22;;;8.00;99.90;;;;;;4908265;29;20113;-62
2021/12/19 12:44:07;;;;;;;20.95;3.50;;;8.00;99.90;;;;;;4914382;29;20447;-62
2021/12/19 12:46:33;;;;;;;22.40;4.03;;;8.00;99.90;;;;;;4929211;29;20043;-62
2021/12/19 12:49:10;;;;;;;18.88;3.78;;;8.00;99.90;;;;;;4932640;29;20047;-62
2021/12/19 12:51:59;;;;;;;20.58;3.63;;;8.00;99.90;;;;;;4896720;29;20517;-62
2021/12/19 12:54:34;;;;;;;25.52;3.70;;;8.00;99.90;;;;;;4926852;28;20399;-62
2021/12/19 12:57:04;;;;;;;19.63;4.13;;;8.00;99.90;;;;;;4931978;28;20051;-64
2021/12/19 12:59:38;;;;;;;18.90;3.80;;;8.00;99.90;;;;;;4925433;28;20141;-62
2021/12/19 13:04:42;;;;;;;28.52;4.10;;;8.00;99.90;;;;;;4916877;28;20554;-62
2021/12/19 13:07:10;;;;;;;16.23;3.45;;;8.00;99.90;;;;;;4924696;29;20055;-62
2021/12/19 13:09:39;;;;;;;24.98;3.80;;;8.00;99.90;;;;;;4927997;29;20047;-62
2021/12/19 13:12:16;;;;;;;27.92;3.75;;;8.00;99.90;;;;;;4931731;29;20459;-63
2021/12/19 13:14:48;;;;;;;22.15;3.65;;;8.00;99.90;;;;;;4919003;29;20293;-62
2021/12/19 13:17:19;;;;;;;29.02;3.85;;;8.00;99.90;;;;;;4910935;28;20973;-61
2021/12/19 13:20:02;;;;;;;18.15;3.63;;;8.00;99.90;;;;;;4930745;29;20050;-63
2021/12/19 13:22:52;;;;;;;21.15;3.97;;;8.00;99.90;;;;;;4929101;28;20051;-62
2021/12/19 13:25:23;;;;;;;26.10;4.15;;;8.00;99.90;;;;;;4929331;29;20054;-61
2021/12/19 13:27:55;;;;;;;20.42;3.60;;;8.00;99.90;;;;;;4910953;29;20044;-61
2021/12/19 13:30:31;;;;;;;22.38;3.70;;;8.00;99.90;;;;;;4932771;29;20047;-60
2021/12/19 13:33:09;;;;;;;21.65;4.18;;;8.00;99.90;;;;;;4931743;28;20039;-61
2021/12/19 13:35:46;;;;;;;21.05;3.55;;;8.00;99.90;;;;;;4910548;28;20094;-62
2021/12/19 13:38:15;;;;;;;27.13;3.65;;;8.00;99.90;;;;;;4945491;28;20279;-62
2021/12/19 13:40:55;;;;;;;22.70;3.90;;;8.10;99.90;;;;;;4908601;28;20530;-60
2021/12/19 13:43:26;;;;;;;24.73;4.18;;;8.00;99.90;;;;;;4931295;28;20047;-63
2021/12/19 13:45:57;;;;;;;26.13;4.35;;;8.10;99.90;;;;;;4929069;28;20055;-61
2021/12/19 13:48:31;;;;;;;20.83;3.42;;;8.10;99.90;;;;;;4927069;29;20080;-61
2021/12/19 13:51:17;;;;;;;29.15;4.07;;;8.10;99.90;;;;;;4947754;28;20098;-61
2021/12/19 13:53:48;;;;;;;22.38;3.90;;;8.10;99.90;;;;;;4910840;28;20047;-63
2021/12/19 13:56:17;;;;;;;23.27;3.13;;;8.10;99.90;;;;;;4928632;28;20050;-60
2021/12/19 13:58:52;;;;;;;18.85;2.58;;;8.10;99.90;;;;;;4929782;28;20043;-62
2021/12/19 14:01:25;;;;;;;17.42;3.08;;;8.00;99.90;;;;;;4929088;28;20047;-63
2021/12/19 14:04:01;;;;;;;14.90;3.53;;;8.00;99.90;;;;;;4922801;28;20495;-62
2021/12/19 14:06:37;;;;;;;16.20;3.03;;;8.00;99.90;;;;;;4924838;28;20058;-62
2021/12/19 14:09:07;;;;;;;16.25;2.97;;;8.00;99.90;;;;;;4887124;29;20050;-61
2021/12/19 14:11:35;;;;;;;19.77;3.33;;;8.00;99.90;;;;;;4907656;29;20446;-61
2021/12/19 14:14:23;;;;;;;16.92;2.83;;;8.00;99.90;;;;;;4912370;28;20051;-63
2021/12/19 14:16:49;;;;;;;15.63;2.75;;;8.00;99.90;;;;;;4942952;28;20515;-61